KALI/ALI METAR and TAF weather

Enter ICAO airport designator
Station Type Date Time Source
KALI METAR 2021/09/25 12:53 UTC NOAA

KALI 251253Z AUTO 03005KT 10SM CLR 18/16 A3007 RMK AO2 SLP182 T01780161


Station Type Date Time Source
KALI Decoded METAR 2021/09/25 12:53 UTC NOAA

ALICE INTERNATIONAL AIRPORT, TX, United States (KALI) 27-44N 098-01W 53M
Sep 25, 2021 - 08:53 AM EDT / 2021.09.25 1253 UTC
Wind: from the NNE (030 degrees) at 6 MPH (5 KT):0
Visibility: 10 mile(s):0
Sky conditions: clear
Temperature: 64.0 F (17.8 C)
Dew Point: 61.0 F (16.1 C)
Relative Humidity: 89%
Pressure (altimeter): 30.07 in. Hg (1018 hPa)
ob: KALI 251253Z AUTO 03005KT 10SM CLR 18/16 A3007 RMK AO2 SLP182 T01780161
cycle: 13

Station Type Date Time Source
KALI TAF 2021/09/25 12:33 UTC NOAA

TAF KALI 251130Z 2512/2612 VRB04KT P6SM FEW030 FEW250
FM252200 12008KT P6SM FEW050

Example: see airport list